createdAt,value
2022-10-09T00:01:31.807Z,8.47
2022-10-09T00:03:59.578Z,8.24
2022-10-09T00:06:29.135Z,8.00
2022-10-09T00:08:56.418Z,7.81
2022-10-09T00:11:25.276Z,8.21
2022-10-09T00:13:53.272Z,8.76
2022-10-09T00:16:21.080Z,8.80
2022-10-09T00:18:48.457Z,8.59
2022-10-09T00:21:26.771Z,8.31
2022-10-09T00:23:55.192Z,8.00
2022-10-09T00:26:22.428Z,7.74
2022-10-09T00:28:49.492Z,7.51
2022-10-09T00:31:16.731Z,7.33
2022-10-09T00:33:43.852Z,7.74
2022-10-09T00:36:29.068Z,8.24
2022-10-09T00:38:56.075Z,8.31
2022-10-09T00:41:28.985Z,8.19
2022-10-09T00:44:04.346Z,8.01
2022-10-09T00:46:40.250Z,7.78
2022-10-09T00:49:22.683Z,7.55
2022-10-09T00:51:50.114Z,7.38
2022-10-09T00:54:18.548Z,7.92
2022-10-09T00:56:45.646Z,8.51
2022-10-09T00:59:12.962Z,8.58
2022-10-09T01:01:41.874Z,8.43
2022-10-09T01:04:09.036Z,8.20
2022-10-09T01:06:57.514Z,7.93
2022-10-09T01:09:35.907Z,7.64
2022-10-09T01:12:19.534Z,7.49
2022-10-09T01:15:18.509Z,8.10
2022-10-09T01:18:07.904Z,8.53
2022-10-09T01:20:42.432Z,8.46
2022-10-09T01:23:17.254Z,8.20
2022-10-09T01:25:56.800Z,7.89
2022-10-09T01:28:24.605Z,7.64
2022-10-09T01:30:51.883Z,7.47
2022-10-09T01:33:19.005Z,7.82
2022-10-09T01:35:46.236Z,8.24
2022-10-09T01:38:13.136Z,8.24
2022-10-09T01:40:40.109Z,8.12
2022-10-09T01:43:07.154Z,7.92
2022-10-09T01:45:42.364Z,7.77
2022-10-09T01:48:13.112Z,7.64
2022-10-09T01:50:43.169Z,8.15
2022-10-09T01:53:12.837Z,8.57
2022-10-09T01:55:49.959Z,8.54
2022-10-09T01:58:27.243Z,8.38
2022-10-09T02:01:19.328Z,8.13
2022-10-09T02:03:48.399Z,7.88
2022-10-09T02:06:16.324Z,7.77
2022-10-09T02:08:44.757Z,8.17
2022-10-09T02:11:12.566Z,8.50
2022-10-09T02:13:39.503Z,8.45
2022-10-09T02:16:20.937Z,8.24
2022-10-09T02:19:04.521Z,7.97
2022-10-09T02:21:48.658Z,7.68
2022-10-09T02:24:19.716Z,7.50
2022-10-09T02:26:46.678Z,7.99
2022-10-09T02:29:13.941Z,8.43
2022-10-09T02:31:42.028Z,8.42
2022-10-09T02:34:12.031Z,8.20
2022-10-09T02:36:39.351Z,7.94
2022-10-09T02:39:06.462Z,7.82
2022-10-09T02:41:33.656Z,7.64
2022-10-09T02:44:00.664Z,7.81
2022-10-09T02:46:27.807Z,8.31
2022-10-09T02:48:54.776Z,8.37
2022-10-09T02:51:21.990Z,8.28
2022-10-09T02:53:48.890Z,8.11
2022-10-09T02:56:15.866Z,7.93
2022-10-09T02:58:43.183Z,7.83
2022-10-09T03:01:10.237Z,8.21
2022-10-09T03:03:37.291Z,8.52
2022-10-09T03:06:04.636Z,8.48
2022-10-09T03:08:31.710Z,8.32
2022-10-09T03:10:58.728Z,8.15
2022-10-09T03:13:25.748Z,8.00
2022-10-09T03:15:52.754Z,7.87
2022-10-09T03:18:19.765Z,8.29
2022-10-09T03:20:46.761Z,8.84
2022-10-09T03:23:13.865Z,9.00
2022-10-09T03:25:40.790Z,8.87
2022-10-09T03:28:07.796Z,8.75
2022-10-09T03:30:34.901Z,8.54
2022-10-09T03:33:01.859Z,8.36
2022-10-09T03:35:28.790Z,8.23
2022-10-09T03:37:55.786Z,8.20
2022-10-09T03:40:22.688Z,8.78
2022-10-09T03:42:49.954Z,9.36
2022-10-09T03:45:17.287Z,9.45
2022-10-09T03:47:44.334Z,9.32
2022-10-09T03:50:11.403Z,9.13
2022-10-09T03:52:38.430Z,8.83
2022-10-09T03:55:06.191Z,8.51
2022-10-09T03:57:33.856Z,8.35
2022-10-09T04:00:00.991Z,8.24
2022-10-09T04:02:27.995Z,8.83
2022-10-09T04:04:54.922Z,9.49
2022-10-09T04:07:21.843Z,9.54
2022-10-09T04:09:48.801Z,9.33
2022-10-09T04:12:15.831Z,9.15
2022-10-09T04:14:42.786Z,8.92
2022-10-09T04:17:09.837Z,8.72
2022-10-09T04:19:36.997Z,8.45
2022-10-09T04:22:04.026Z,8.37
2022-10-09T04:24:31.066Z,8.88
2022-10-09T04:26:58.123Z,9.53
2022-10-09T04:29:25.454Z,9.69
2022-10-09T04:31:53.046Z,9.58
2022-10-09T04:34:20.100Z,9.46
2022-10-09T04:36:47.060Z,9.27
2022-10-09T04:39:14.065Z,9.06
2022-10-09T04:41:41.224Z,8.90
2022-10-09T04:44:08.218Z,8.80
2022-10-09T04:46:35.179Z,9.27
2022-10-09T04:49:02.055Z,9.91
2022-10-09T04:51:28.935Z,10.05
2022-10-09T04:54:00.432Z,9.94
2022-10-09T04:56:27.926Z,9.76
2022-10-09T04:58:54.852Z,9.57
2022-10-09T05:01:23.455Z,9.39
2022-10-09T05:03:50.817Z,9.25
2022-10-09T05:06:18.635Z,9.17
2022-10-09T05:08:45.754Z,9.68
2022-10-09T05:11:18.238Z,10.34
2022-10-09T05:13:47.502Z,10.51
2022-10-09T05:16:16.944Z,10.41
2022-10-09T05:18:44.863Z,10.26
2022-10-09T05:21:11.994Z,10.09
2022-10-09T05:23:38.944Z,9.93
2022-10-09T05:26:12.343Z,9.83
2022-10-09T05:28:39.420Z,9.78
2022-10-09T05:31:07.174Z,10.34
2022-10-09T05:33:34.499Z,11.03
2022-10-09T05:36:03.007Z,11.19
2022-10-09T05:38:30.438Z,11.12
2022-10-09T05:40:59.384Z,10.99
2022-10-09T05:43:27.706Z,10.83
2022-10-09T05:45:55.077Z,10.68
2022-10-09T05:48:22.246Z,10.57
2022-10-09T05:50:49.259Z,10.49
2022-10-09T05:53:16.199Z,11.04
2022-10-09T05:55:43.151Z,11.66
2022-10-09T05:58:10.092Z,11.74
2022-10-09T06:00:37.270Z,11.56
2022-10-09T06:03:04.405Z,11.38
2022-10-09T06:05:31.399Z,11.21
2022-10-09T06:07:58.488Z,11.07
2022-10-09T06:10:28.013Z,11.00
2022-10-09T06:12:58.575Z,11.61
2022-10-09T06:15:25.568Z,12.18
2022-10-09T06:17:52.484Z,12.25
2022-10-09T06:20:19.316Z,12.11
2022-10-09T06:22:46.381Z,11.96
2022-10-09T06:25:13.502Z,11.94
2022-10-09T06:27:40.402Z,11.97
2022-10-09T06:30:08.303Z,12.50
2022-10-09T06:32:35.233Z,13.12
2022-10-09T06:35:02.256Z,13.13
2022-10-09T06:37:29.223Z,13.00
2022-10-09T06:39:56.252Z,12.89
2022-10-09T06:42:23.605Z,12.77
2022-10-09T06:44:51.465Z,12.69
2022-10-09T06:47:18.614Z,13.09
2022-10-09T06:49:45.664Z,13.49
2022-10-09T06:52:12.712Z,13.60
2022-10-09T06:54:39.570Z,13.48
2022-10-09T06:57:06.507Z,13.24
2022-10-09T06:59:33.516Z,12.94
2022-10-09T07:02:00.619Z,13.03
2022-10-09T07:04:27.849Z,13.61
2022-10-09T07:06:54.915Z,13.77
2022-10-09T07:09:21.940Z,13.81
2022-10-09T07:11:49.593Z,13.73
2022-10-09T07:14:16.792Z,13.61
2022-10-09T07:16:45.752Z,13.50
2022-10-09T07:19:13.226Z,13.83
2022-10-09T07:21:41.748Z,14.05
2022-10-09T07:24:08.846Z,13.93
2022-10-09T07:26:37.316Z,13.70
2022-10-09T07:29:05.394Z,13.31
2022-10-09T07:31:32.440Z,13.12
2022-10-09T07:33:59.686Z,13.18
2022-10-09T07:36:26.942Z,13.37
2022-10-09T07:38:57.818Z,13.21
2022-10-09T07:41:26.195Z,13.07
2022-10-09T07:43:53.133Z,12.88
2022-10-09T07:46:22.141Z,12.81
2022-10-09T07:48:49.347Z,13.32
2022-10-09T07:51:21.872Z,13.46
2022-10-09T07:53:48.962Z,13.31
2022-10-09T07:56:23.797Z,13.20
2022-10-09T07:58:52.071Z,12.89
2022-10-09T08:01:20.503Z,13.04
2022-10-09T08:03:48.314Z,13.47
2022-10-09T08:06:16.007Z,13.47
2022-10-09T08:08:43.125Z,13.35
2022-10-09T08:11:14.778Z,13.12
2022-10-09T08:13:42.071Z,12.98
2022-10-09T08:16:09.294Z,13.27
2022-10-09T08:18:37.009Z,13.51
2022-10-09T08:21:14.952Z,13.72
2022-10-09T08:23:42.027Z,13.63
2022-10-09T08:26:17.241Z,13.43
2022-10-09T08:28:44.736Z,13.59
2022-10-09T08:31:13.162Z,13.74
2022-10-09T08:33:40.273Z,13.78
2022-10-09T08:36:08.691Z,13.81
2022-10-09T08:38:51.424Z,13.62
2022-10-09T08:41:27.797Z,13.67
2022-10-09T08:44:01.788Z,14.10
2022-10-09T08:46:32.848Z,14.17
2022-10-09T08:48:59.901Z,14.11
2022-10-09T08:51:28.226Z,13.82
2022-10-09T08:53:59.148Z,13.63
2022-10-09T08:56:26.182Z,13.40
2022-10-09T08:58:53.326Z,13.72
2022-10-09T09:01:31.604Z,13.67
2022-10-09T09:04:23.847Z,13.45
2022-10-09T09:07:18.745Z,13.41
2022-10-09T09:10:13.951Z,13.36
2022-10-09T09:12:55.954Z,13.74
2022-10-09T09:15:30.041Z,13.64
2022-10-09T09:17:56.911Z,13.57
2022-10-09T09:20:27.955Z,13.69
2022-10-09T09:22:55.100Z,13.72
2022-10-09T09:25:24.449Z,14.12
2022-10-09T09:27:52.879Z,14.09
2022-10-09T09:30:23.765Z,14.00
2022-10-09T09:33:18.970Z,13.80
2022-10-09T09:35:52.050Z,13.57
2022-10-09T09:38:19.000Z,13.70
2022-10-09T09:40:47.173Z,14.07
2022-10-09T09:43:22.585Z,14.14
2022-10-09T09:45:57.653Z,14.47
2022-10-09T09:48:46.054Z,14.49
2022-10-09T09:51:33.143Z,14.17
2022-10-09T09:54:22.115Z,14.26
2022-10-09T09:59:38.178Z,14.13
2022-10-09T10:02:17.615Z,14.62
2022-10-09T10:04:57.769Z,14.65
2022-10-09T10:07:43.014Z,14.62
2022-10-09T10:10:09.898Z,14.27
2022-10-09T10:12:44.220Z,14.36
2022-10-09T10:15:25.968Z,14.21
2022-10-09T10:17:59.158Z,14.00
2022-10-09T10:20:26.973Z,13.96
2022-10-09T10:22:55.814Z,14.28
2022-10-09T10:25:31.789Z,14.39
2022-10-09T10:28:02.766Z,14.43
2022-10-09T10:30:29.963Z,14.41
2022-10-09T10:33:02.945Z,14.16
2022-10-09T10:35:40.744Z,13.82
2022-10-09T10:38:13.233Z,13.71
2022-10-09T10:40:44.597Z,13.47
2022-10-09T10:44:07.897Z,13.45
2022-10-09T10:46:39.215Z,13.79
2022-10-09T10:49:07.876Z,13.78
2022-10-09T10:51:58.063Z,13.74
2022-10-09T10:54:34.327Z,13.42
2022-10-09T10:57:27.479Z,13.21
2022-10-09T11:00:05.629Z,13.30
2022-10-09T11:03:03.504Z,13.85
2022-10-09T11:05:46.940Z,14.06
2022-10-09T11:08:35.677Z,13.71
2022-10-09T11:11:33.715Z,13.75
2022-10-09T11:14:25.884Z,13.57
2022-10-09T11:16:55.687Z,13.35
2022-10-09T11:19:25.475Z,13.57
2022-10-09T11:22:14.555Z,13.78
2022-10-09T11:25:10.046Z,13.63
2022-10-09T11:28:18.936Z,13.52
2022-10-09T11:30:59.982Z,13.35
2022-10-09T11:33:51.173Z,13.22
2022-10-09T11:36:39.837Z,13.66
2022-10-09T11:39:13.141Z,13.79
2022-10-09T11:41:40.082Z,13.64
2022-10-09T11:44:29.173Z,13.51
2022-10-09T11:47:14.512Z,13.31
2022-10-09T11:49:47.703Z,13.30
2022-10-09T11:52:23.987Z,13.86
2022-10-09T11:54:51.020Z,14.14
2022-10-09T11:57:27.472Z,14.11
2022-10-09T12:00:04.915Z,14.00
2022-10-09T12:02:32.153Z,13.87
2022-10-09T12:04:59.501Z,13.86
2022-10-09T12:07:30.965Z,13.78
2022-10-09T12:10:08.590Z,13.75
2022-10-09T12:12:37.935Z,14.13
2022-10-09T12:15:37.433Z,14.52
2022-10-09T12:18:17.489Z,14.57
2022-10-09T12:20:45.918Z,14.96
2022-10-09T12:23:28.463Z,14.91
2022-10-09T12:25:55.938Z,15.10
2022-10-09T12:28:29.367Z,15.44
2022-10-09T12:30:58.361Z,15.77
2022-10-09T12:33:48.509Z,15.90
2022-10-09T12:36:22.089Z,15.78
2022-10-09T12:38:49.163Z,15.62
2022-10-09T12:41:27.977Z,15.21
2022-10-09T12:43:56.054Z,15.11
2022-10-09T12:46:30.602Z,14.78
2022-10-09T12:48:58.190Z,14.32
2022-10-09T12:51:27.146Z,13.87
2022-10-09T12:53:54.922Z,13.83
2022-10-09T12:56:24.830Z,13.97
2022-10-09T12:58:51.755Z,14.13
2022-10-09T13:01:19.027Z,14.33
2022-10-09T13:03:54.861Z,14.33
2022-10-09T13:06:24.470Z,14.39
2022-10-09T13:08:52.868Z,14.35
2022-10-09T13:11:22.407Z,13.97
2022-10-09T13:13:50.912Z,13.73
2022-10-09T13:16:18.042Z,13.67
2022-10-09T13:19:04.135Z,13.91
2022-10-09T13:21:35.242Z,14.20
2022-10-09T13:24:13.422Z,14.40
2022-10-09T13:26:41.485Z,14.47
2022-10-09T13:29:08.784Z,14.50
2022-10-09T13:31:37.234Z,14.28
2022-10-09T13:34:12.312Z,14.15
2022-10-09T13:36:39.322Z,14.19
2022-10-09T13:39:06.472Z,14.22
2022-10-09T13:41:34.031Z,14.25
2022-10-09T13:44:01.071Z,14.29
2022-10-09T13:46:28.067Z,14.35
2022-10-09T13:48:55.099Z,14.33
2022-10-09T13:51:22.112Z,14.26
2022-10-09T13:53:50.035Z,14.16
2022-10-09T13:56:17.340Z,14.04
2022-10-09T13:58:44.330Z,13.95
2022-10-09T14:01:11.380Z,14.02
2022-10-09T14:03:38.781Z,13.97
2022-10-09T14:06:06.716Z,14.01
2022-10-09T14:08:33.611Z,13.98
2022-10-09T14:11:01.054Z,13.97
2022-10-09T14:13:28.923Z,13.85
2022-10-09T14:15:56.056Z,13.76
2022-10-09T14:18:23.114Z,13.76
2022-10-09T14:20:50.163Z,13.78
2022-10-09T14:23:17.073Z,13.64
2022-10-09T14:25:44.155Z,13.61
2022-10-09T14:28:11.241Z,13.62
2022-10-09T14:30:42.271Z,13.62
2022-10-09T14:33:09.530Z,13.53
2022-10-09T14:35:36.588Z,13.34
2022-10-09T14:38:03.906Z,13.19
2022-10-09T14:40:31.454Z,13.11
2022-10-09T14:42:58.606Z,13.00
2022-10-09T14:45:25.755Z,12.86
2022-10-09T14:47:52.660Z,12.62
2022-10-09T14:50:19.610Z,12.51
2022-10-09T14:52:46.677Z,12.38
2022-10-09T14:55:15.400Z,12.28
2022-10-09T14:57:43.756Z,12.17
2022-10-09T15:00:11.650Z,12.10
2022-10-09T15:02:38.911Z,12.43
2022-10-09T15:05:06.119Z,12.61
2022-10-09T15:07:33.994Z,12.53
2022-10-09T15:10:00.944Z,12.34
2022-10-09T15:12:27.946Z,12.13
2022-10-09T15:14:54.932Z,11.93
2022-10-09T15:17:22.061Z,11.76
2022-10-09T15:19:49.131Z,11.59
2022-10-09T15:22:16.074Z,11.47
2022-10-09T15:24:43.056Z,11.36
2022-10-09T15:27:09.974Z,11.67
2022-10-09T15:29:37.059Z,12.03
2022-10-09T15:32:04.061Z,11.98
2022-10-09T15:34:31.206Z,11.89
2022-10-09T15:36:58.280Z,11.62
2022-10-09T15:39:25.341Z,11.44
2022-10-09T15:41:52.350Z,11.28
2022-10-09T15:44:20.572Z,11.18
2022-10-09T15:46:48.206Z,11.07
2022-10-09T15:49:15.235Z,11.01
2022-10-09T15:51:42.216Z,11.48
2022-10-09T15:54:10.444Z,11.88
2022-10-09T15:56:39.971Z,11.78
2022-10-09T15:59:07.620Z,11.64
2022-10-09T16:01:34.668Z,11.50
2022-10-09T16:04:01.922Z,11.29
2022-10-09T16:06:29.217Z,11.11
2022-10-09T16:08:57.608Z,10.98
2022-10-09T16:11:26.441Z,10.98
2022-10-09T16:13:54.676Z,11.33
2022-10-09T16:16:23.511Z,11.45
2022-10-09T16:18:51.222Z,11.30
2022-10-09T16:21:20.234Z,11.15
2022-10-09T16:23:47.720Z,10.98
2022-10-09T16:26:17.990Z,10.76
2022-10-09T16:28:45.994Z,10.61
2022-10-09T16:31:26.691Z,10.62
2022-10-09T16:33:53.826Z,11.16
2022-10-09T16:36:21.004Z,11.30
2022-10-09T16:38:48.229Z,11.24
2022-10-09T16:41:18.102Z,10.99
2022-10-09T16:43:46.135Z,10.82
2022-10-09T16:46:20.440Z,10.69
2022-10-09T16:48:48.398Z,10.48
2022-10-09T16:51:18.068Z,10.40
2022-10-09T16:53:45.363Z,10.30
2022-10-09T16:56:16.708Z,10.78
2022-10-09T16:58:43.985Z,11.07
2022-10-09T17:01:11.208Z,11.10
2022-10-09T17:03:42.218Z,10.94
2022-10-09T17:06:16.394Z,10.79
2022-10-09T17:08:43.420Z,10.64
2022-10-09T17:11:11.766Z,10.45
2022-10-09T17:13:38.847Z,10.35
2022-10-09T17:16:07.529Z,10.60
2022-10-09T17:18:35.596Z,10.98
2022-10-09T17:21:07.050Z,10.94
2022-10-09T17:23:34.195Z,10.85
2022-10-09T17:26:08.034Z,10.70
2022-10-09T17:28:35.401Z,10.49
2022-10-09T17:31:07.215Z,10.25
2022-10-09T17:33:34.740Z,10.07
2022-10-09T17:36:02.334Z,10.47
2022-10-09T17:38:29.390Z,10.65
2022-10-09T17:40:56.555Z,10.54
2022-10-09T17:45:11.618Z,10.13
2022-10-09T17:47:39.175Z,9.82
2022-10-09T17:50:06.995Z,9.66
2022-10-09T17:52:33.992Z,9.39
2022-10-09T17:55:01.133Z,9.59
2022-10-09T17:57:28.084Z,9.92
2022-10-09T17:59:55.055Z,9.92
2022-10-09T18:02:22.090Z,9.72
2022-10-09T18:04:49.226Z,9.46
2022-10-09T18:07:19.694Z,9.24
2022-10-09T18:09:46.552Z,9.12
2022-10-09T18:12:13.446Z,9.47
2022-10-09T18:14:40.506Z,9.74
2022-10-09T18:17:07.730Z,9.61
2022-10-09T18:19:34.883Z,9.37
2022-10-09T18:22:02.440Z,9.15
2022-10-09T18:24:29.496Z,8.95
2022-10-09T18:26:56.490Z,8.88
2022-10-09T18:29:23.486Z,9.20
2022-10-09T18:31:55.647Z,9.47
2022-10-09T18:34:23.343Z,9.42
2022-10-09T18:36:52.100Z,9.20
2022-10-09T18:39:19.425Z,8.96
2022-10-09T18:41:46.507Z,8.69
2022-10-09T18:44:17.863Z,8.56
2022-10-09T18:46:54.628Z,8.94
2022-10-09T18:49:24.698Z,9.18
2022-10-09T18:51:53.365Z,9.04
2022-10-09T18:54:21.980Z,8.83
2022-10-09T18:56:48.958Z,8.65
2022-10-09T18:59:17.538Z,8.46
2022-10-09T19:01:44.535Z,8.88
2022-10-09T19:04:11.945Z,9.27
2022-10-09T19:06:39.191Z,9.10
2022-10-09T19:09:06.245Z,8.90
2022-10-09T19:11:34.093Z,8.75
2022-10-09T19:14:01.276Z,8.53
2022-10-09T19:16:28.905Z,8.44
2022-10-09T19:18:56.726Z,8.77
2022-10-09T19:21:23.830Z,9.23
2022-10-09T19:23:51.589Z,9.22
2022-10-09T19:26:18.765Z,8.99
2022-10-09T19:28:46.054Z,8.82
2022-10-09T19:31:13.904Z,8.60
2022-10-09T19:33:41.282Z,8.44
2022-10-09T19:36:10.641Z,8.78
2022-10-09T19:38:37.515Z,9.13
2022-10-09T19:41:09.420Z,9.04
2022-10-09T19:43:36.676Z,8.79
2022-10-09T19:46:05.533Z,8.54
2022-10-09T19:48:32.921Z,8.22
2022-10-09T19:50:59.969Z,8.07
2022-10-09T19:53:27.128Z,8.53
2022-10-09T19:55:54.162Z,8.81
2022-10-09T19:58:21.155Z,8.77
2022-10-09T20:00:49.185Z,8.56
2022-10-09T20:03:16.395Z,8.32
2022-10-09T20:05:43.477Z,8.17
2022-10-09T20:08:10.534Z,8.02
2022-10-09T20:10:38.103Z,8.51
2022-10-09T20:13:05.545Z,8.68
2022-10-09T20:15:32.546Z,8.74
2022-10-09T20:17:59.536Z,8.55
2022-10-09T20:20:27.401Z,8.28
2022-10-09T20:22:54.561Z,7.96
2022-10-09T20:25:21.797Z,7.98
2022-10-09T20:27:48.855Z,8.43
2022-10-09T20:30:15.792Z,8.53
2022-10-09T20:32:42.841Z,8.43
2022-10-09T20:35:10.327Z,8.12
2022-10-09T20:37:37.452Z,7.88
2022-10-09T20:40:04.926Z,7.72
2022-10-09T20:42:32.262Z,8.00
2022-10-09T20:44:59.312Z,8.31
2022-10-09T20:47:26.254Z,8.28
2022-10-09T20:49:53.170Z,8.09
2022-10-09T20:52:20.180Z,7.82
2022-10-09T20:54:47.082Z,7.62
2022-10-09T20:57:14.085Z,7.83
2022-10-09T20:59:41.280Z,8.28
2022-10-09T21:02:08.540Z,8.15
2022-10-09T21:04:35.617Z,8.01
2022-10-09T21:07:02.551Z,7.79
2022-10-09T21:09:33.065Z,7.66
2022-10-09T21:12:00.612Z,7.97
2022-10-09T21:14:27.611Z,8.29
2022-10-09T21:16:54.513Z,8.27
2022-10-09T21:19:21.463Z,8.09
2022-10-09T21:21:51.001Z,7.78
2022-10-09T21:24:18.309Z,7.52
2022-10-09T21:26:47.608Z,7.39
2022-10-09T21:29:14.626Z,7.84
2022-10-09T21:31:42.011Z,7.90
2022-10-09T21:34:09.118Z,7.74
2022-10-09T21:37:08.863Z,7.57
2022-10-09T21:39:33.711Z,7.32
2022-10-09T21:42:00.826Z,7.21
2022-10-09T21:44:27.969Z,7.67
2022-10-09T21:46:55.042Z,7.88
2022-10-09T21:49:23.517Z,7.66
2022-10-09T21:51:50.614Z,7.48
2022-10-09T21:54:17.595Z,7.30
2022-10-09T21:56:44.619Z,7.07
2022-10-09T21:59:11.702Z,7.44
2022-10-09T22:01:38.700Z,7.70
2022-10-09T22:04:05.810Z,7.56
2022-10-09T22:06:32.824Z,7.49
2022-10-09T22:09:00.192Z,7.21
2022-10-09T22:11:27.233Z,6.99
2022-10-09T22:13:55.805Z,7.32
2022-10-09T22:16:22.855Z,7.63
2022-10-09T22:18:49.711Z,7.52
2022-10-09T22:21:16.959Z,7.35
2022-10-09T22:23:44.238Z,7.03
2022-10-09T22:26:13.654Z,6.87
2022-10-09T22:28:40.834Z,7.20
2022-10-09T22:31:14.045Z,7.50
2022-10-09T22:33:41.197Z,7.35
2022-10-09T22:36:10.782Z,7.18
2022-10-09T22:38:37.953Z,6.82
2022-10-09T22:41:05.717Z,6.68
2022-10-09T22:43:32.677Z,7.01
2022-10-09T22:45:59.718Z,7.32
2022-10-09T22:48:26.686Z,7.18
2022-10-09T22:50:53.705Z,6.93
2022-10-09T22:53:20.799Z,6.78
2022-10-09T22:55:47.830Z,6.55
2022-10-09T22:58:14.858Z,6.79
2022-10-09T23:00:41.837Z,7.11
2022-10-09T23:03:08.840Z,7.02
2022-10-09T23:05:35.846Z,6.76
2022-10-09T23:08:02.750Z,6.64
2022-10-09T23:10:29.683Z,6.44
2022-10-09T23:12:56.653Z,6.71
2022-10-09T23:15:23.661Z,7.01
2022-10-09T23:17:50.606Z,7.00
2022-10-09T23:20:17.561Z,6.79
2022-10-09T23:22:44.542Z,6.45
2022-10-09T23:25:11.544Z,6.31
2022-10-09T23:27:38.593Z,6.59
2022-10-09T23:30:06.380Z,6.93
2022-10-09T23:32:33.398Z,6.83
2022-10-09T23:35:00.489Z,6.64
2022-10-09T23:37:27.416Z,6.41
2022-10-09T23:39:54.260Z,6.15
2022-10-09T23:42:21.401Z,6.43
2022-10-09T23:44:48.331Z,6.72
2022-10-09T23:47:15.259Z,6.69
2022-10-09T23:49:42.218Z,6.47
2022-10-09T23:52:09.136Z,6.21
2022-10-09T23:54:36.066Z,6.03
2022-10-09T23:57:03.158Z,6.32
2022-10-09T23:59:30.146Z,6.65
